Time;durP1;ratioP1;P1;durP2;ratioP2;P2;SDS_P1;SDS_P2;PMS_P1;PMS_P2;Temp;Humidity;BMP_temperature;BMP_pressure;BME280_temperature;BME280_humidity;BME280_pressure;Samples;Min_cycle;Max_cycle;Signal;HPM_P1;HPM_P2
2021/10/28 00:13:38;;;;;;;4.90;2.45;;;16.10;78.40;;;;;;4994617;28;20127;-76
2021/10/28 00:16:38;;;;;;;4.90;1.70;;;16.10;78.40;;;;;;5004648;28;20052;-79
2021/10/28 00:19:03;;;;;;;2.17;1.50;;;16.00;78.30;;;;;;4990710;28;20042;-77
2021/10/28 00:21:37;;;;;;;3.17;1.95;;;16.00;78.40;;;;;;4991013;28;20113;-78
2021/10/28 00:24:07;;;;;;;4.32;1.60;;;16.00;78.40;;;;;;5001928;28;20470;-77
2021/10/28 00:26:35;;;;;;;4.43;1.95;;;16.00;78.40;;;;;;5010108;28;20518;-77
2021/10/28 00:29:03;;;;;;;4.00;1.90;;;16.00;78.50;;;;;;5016238;28;20026;-79
2021/10/28 00:31:32;;;;;;;2.83;1.80;;;16.00;78.50;;;;;;4990300;28;20060;-79
2021/10/28 00:33:59;;;;;;;3.47;1.70;;;16.00;78.50;;;;;;4990330;28;20030;-78
2021/10/28 00:36:26;;;;;;;3.05;1.60;;;16.00;78.50;;;;;;5005314;28;20447;-78
2021/10/28 00:38:53;;;;;;;4.88;2.30;;;16.00;78.50;;;;;;4989555;28;20030;-80
2021/10/28 00:41:22;;;;;;;3.28;1.50;;;16.00;78.50;;;;;;4990653;28;20617;-79
2021/10/28 00:43:50;;;;;;;3.75;2.33;;;16.00;78.50;;;;;;4999896;28;20045;-81
2021/10/28 00:46:18;;;;;;;2.38;1.90;;;16.00;78.50;;;;;;5005600;28;20049;-80
2021/10/28 00:48:46;;;;;;;3.85;2.10;;;16.00;78.50;;;;;;4989993;28;20134;-79
2021/10/28 00:51:13;;;;;;;5.97;2.08;;;16.00;78.50;;;;;;5004730;28;20026;-77
2021/10/28 00:53:40;;;;;;;4.43;1.73;;;16.00;78.50;;;;;;4990049;28;20049;-79
2021/10/28 00:56:08;;;;;;;5.13;2.50;;;16.00;78.50;;;;;;4990046;28;20046;-78
2021/10/28 00:58:35;;;;;;;5.05;2.20;;;15.90;78.40;;;;;;5005455;28;20026;-80
2021/10/28 01:01:04;;;;;;;4.35;1.75;;;16.00;78.60;;;;;;4990048;28;20030;-81
2021/10/28 01:03:31;;;;;;;4.38;1.88;;;15.90;78.40;;;;;;4997134;28;20092;-80
2021/10/28 01:05:58;;;;;;;5.28;1.80;;;15.90;78.40;;;;;;5009174;28;20042;-80
2021/10/28 01:08:25;;;;;;;4.45;1.80;;;15.90;78.50;;;;;;5005153;28;20113;-80
2021/10/28 01:10:52;;;;;;;4.75;2.70;;;15.90;78.50;;;;;;4990253;28;20030;-80
2021/10/28 01:13:20;;;;;;;4.25;1.65;;;15.90;78.50;;;;;;4995258;28;20041;-80
2021/10/28 01:15:48;;;;;;;3.45;1.85;;;15.90;78.50;;;;;;5009745;28;20075;-80
2021/10/28 01:18:16;;;;;;;4.25;2.13;;;15.90;78.50;;;;;;4973955;28;20037;-82
2021/10/28 01:20:44;;;;;;;5.25;1.70;;;15.90;78.50;;;;;;5009267;28;20037;-81
2021/10/28 01:23:11;;;;;;;4.28;1.60;;;15.90;78.50;;;;;;5008660;28;20528;-82
2021/10/28 01:25:41;;;;;;;5.82;2.83;;;15.90;79.10;;;;;;5024639;28;20184;-80
2021/10/28 01:28:15;;;;;;;3.53;1.77;;;15.90;78.60;;;;;;5006898;28;20037;-79
2021/10/28 01:30:45;;;;;;;3.42;1.92;;;15.90;78.60;;;;;;5004687;28;20026;-79
2021/10/28 01:33:11;;;;;;;2.83;1.95;;;15.90;78.60;;;;;;4989909;28;20026;-80
2021/10/28 01:35:37;;;;;;;3.63;1.80;;;15.90;78.60;;;;;;5005664;28;20034;-80
2021/10/28 01:38:03;;;;;;;6.85;1.95;;;15.90;78.60;;;;;;4996909;28;20073;-80
2021/10/28 01:40:29;;;;;;;5.50;1.60;;;15.90;78.60;;;;;;4989703;28;20044;-79
2021/10/28 01:42:55;;;;;;;5.05;1.65;;;15.80;78.40;;;;;;4990793;28;20117;-76
2021/10/28 01:45:21;;;;;;;2.28;1.55;;;15.90;78.50;;;;;;4990488;28;20061;-79
2021/10/28 01:47:48;;;;;;;3.72;1.85;;;15.90;78.50;;;;;;5008007;28;20501;-80
2021/10/28 01:50:14;;;;;;;2.88;1.60;;;15.80;78.40;;;;;;5004603;28;20132;-79
2021/10/28 01:52:41;;;;;;;6.45;2.17;;;15.90;78.50;;;;;;5012794;28;20075;-78
2021/10/28 01:55:10;;;;;;;2.63;1.88;;;15.80;78.30;;;;;;5013394;28;20484;-79
2021/10/28 01:57:38;;;;;;;5.32;2.00;;;15.80;78.30;;;;;;5012982;28;20065;-80
2021/10/28 02:00:11;;;;;;;4.03;1.85;;;15.80;78.30;;;;;;5013135;28;20489;-80
2021/10/28 02:02:38;;;;;;;5.60;1.90;;;15.80;78.30;;;;;;5013132;28;20033;-81
2021/10/28 02:05:05;;;;;;;3.50;2.20;;;15.80;78.30;;;;;;5012931;28;20069;-79
2021/10/28 02:07:31;;;;;;;3.65;1.55;;;15.80;78.30;;;;;;5011606;28;20516;-79
2021/10/28 02:09:57;;;;;;;5.07;2.28;;;15.80;78.30;;;;;;5012892;28;20026;-79
2021/10/28 02:12:24;;;;;;;4.05;1.65;;;15.80;78.30;;;;;;5012773;28;20045;-79
2021/10/28 02:14:50;;;;;;;7.30;3.08;;;15.80;78.40;;;;;;5011768;28;20125;-78
2021/10/28 02:17:16;;;;;;;3.92;1.77;;;15.70;78.20;;;;;;5001140;28;20145;-80
2021/10/28 02:19:42;;;;;;;5.18;1.70;;;15.70;78.20;;;;;;4993053;28;20053;-80
2021/10/28 02:22:08;;;;;;;3.90;2.00;;;15.70;78.30;;;;;;4993116;28;20113;-81
2021/10/28 02:24:34;;;;;;;5.38;2.20;;;15.70;78.30;;;;;;4992535;28;20482;-80
2021/10/28 02:27:01;;;;;;;4.82;2.00;;;15.70;78.30;;;;;;5007962;28;20399;-79
2021/10/28 02:29:27;;;;;;;6.22;2.05;;;15.60;78.20;;;;;;4993313;28;20054;-80
2021/10/28 02:31:53;;;;;;;3.63;2.05;;;15.60;78.20;;;;;;4992862;28;20507;-79
2021/10/28 02:34:19;;;;;;;2.55;1.60;;;15.60;78.20;;;;;;4993301;28;20034;-79
2021/10/28 02:36:46;;;;;;;5.10;1.98;;;15.60;78.20;;;;;;4993126;28;20034;-80
2021/10/28 02:39:12;;;;;;;6.00;1.80;;;15.70;78.40;;;;;;4992364;28;20034;-81
2021/10/28 02:41:38;;;;;;;4.78;1.75;;;15.60;78.30;;;;;;4992511;28;20037;-81
2021/10/28 02:44:04;;;;;;;3.97;2.40;;;15.60;78.30;;;;;;4992844;28;20022;-79
2021/10/28 02:46:30;;;;;;;4.55;2.53;;;15.60;78.30;;;;;;4992886;28;20042;-80
2021/10/28 02:48:56;;;;;;;4.13;1.98;;;15.60;78.30;;;;;;4991238;28;20057;-80
2021/10/28 02:51:22;;;;;;;4.25;2.03;;;15.60;78.30;;;;;;4992711;28;20037;-79
2021/10/28 02:53:48;;;;;;;4.50;2.40;;;15.60;78.30;;;;;;4991952;28;20088;-79
2021/10/28 02:56:14;;;;;;;4.57;1.95;;;15.60;78.30;;;;;;4992638;28;20045;-79
2021/10/28 02:58:40;;;;;;;3.95;1.98;;;15.60;78.30;;;;;;4992391;28;20037;-79
2021/10/28 03:01:06;;;;;;;4.53;2.33;;;15.60;78.30;;;;;;4991581;28;20034;-78
2021/10/28 03:03:32;;;;;;;5.75;2.42;;;15.60;78.30;;;;;;4992324;28;20097;-80
2021/10/28 03:05:58;;;;;;;4.55;2.25;;;15.60;78.30;;;;;;4990949;28;20038;-79
2021/10/28 03:08:23;;;;;;;4.95;1.67;;;15.60;78.30;;;;;;4992286;28;20026;-79
2021/10/28 03:10:51;;;;;;;6.45;2.10;;;15.60;78.30;;;;;;4990675;28;20034;-80
2021/10/28 03:13:19;;;;;;;5.13;2.55;;;15.60;78.30;;;;;;4991381;28;20030;-81
2021/10/28 03:15:47;;;;;;;5.63;1.88;;;15.60;78.30;;;;;;4990602;28;20038;-81
2021/10/28 03:26:31;;;;;;;4.03;1.75;;;15.60;78.30;;;;;;4992135;28;20042;-78
2021/10/28 03:28:56;;;;;;;5.72;1.83;;;15.60;78.30;;;;;;4990582;28;20030;-79
2021/10/28 03:31:22;;;;;;;7.05;2.63;;;15.60;78.30;;;;;;5007001;28;20238;-79
2021/10/28 03:33:50;;;;;;;4.82;2.25;;;15.60;78.30;;;;;;4992197;28;20026;-79
2021/10/28 03:36:30;;;;;;;4.15;2.40;;;15.60;78.30;;;;;;4990492;28;20352;-78
2021/10/28 03:39:11;;;;;;;4.20;2.10;;;15.60;78.30;;;;;;4991827;28;20081;-78
2021/10/28 03:47:20;;;;;;;4.97;2.13;;;15.60;78.30;;;;;;4990607;28;20316;-80
2021/10/28 04:06:10;;;;;;;5.68;1.77;;;15.60;78.20;;;;;;4991408;28;20069;-81
2021/10/28 04:16:19;;;;;;;3.35;1.80;;;15.50;78.10;;;;;;4991663;28;20142;-76
2021/10/28 04:30:22;;;;;;;3.90;1.70;;;15.40;78.20;;;;;;4991131;28;20386;-81
2021/10/28 04:32:49;;;;;;;6.45;3.40;;;15.40;78.20;;;;;;4990158;28;20084;-81
2021/10/28 04:35:15;;;;;;;3.63;2.13;;;15.40;78.30;;;;;;4991203;28;20034;-82
2021/10/28 04:37:44;;;;;;;2.05;1.75;;;15.40;78.90;;;;;;4991357;28;20030;-81
2021/10/28 04:40:11;;;;;;;6.30;2.88;;;15.40;78.40;;;;;;4990817;28;20034;-80
2021/10/28 04:42:37;;;;;;;5.35;2.38;;;15.40;78.50;;;;;;4991470;28;20078;-79
2021/10/28 04:45:04;;;;;;;5.57;1.98;;;15.40;78.50;;;;;;4989741;28;20446;-81
2021/10/28 04:47:31;;;;;;;5.78;2.05;;;15.40;78.60;;;;;;4988556;28;20125;-77
2021/10/28 04:49:57;;;;;;;3.63;1.60;;;15.30;78.40;;;;;;4984576;28;20471;-79
2021/10/28 04:52:23;;;;;;;4.25;2.17;;;15.30;78.50;;;;;;4986039;28;20034;-80
2021/10/28 04:54:50;;;;;;;3.95;2.35;;;15.40;78.70;;;;;;4986815;28;20125;-79
2021/10/28 04:57:16;;;;;;;3.17;2.13;;;15.30;78.50;;;;;;4987750;28;20081;-79
2021/10/28 04:59:43;;;;;;;5.20;2.38;;;15.30;78.60;;;;;;4968303;28;20398;-78
2021/10/28 05:02:09;;;;;;;3.28;1.88;;;15.30;78.60;;;;;;4984096;28;20067;-79
2021/10/28 05:04:35;;;;;;;4.45;2.13;;;15.30;78.60;;;;;;4989734;28;20039;-79
2021/10/28 05:07:01;;;;;;;4.05;1.88;;;15.30;78.60;;;;;;4987036;28;20026;-77
2021/10/28 05:09:30;;;;;;;4.13;2.45;;;15.30;78.60;;;;;;4990651;28;20117;-79
2021/10/28 05:11:59;;;;;;;3.60;2.03;;;15.20;78.50;;;;;;4995109;28;20117;-78
2021/10/28 05:14:26;;;;;;;3.92;2.15;;;15.20;78.50;;;;;;5007292;28;20032;-79
2021/10/28 05:16:56;;;;;;;3.58;1.75;;;15.20;78.50;;;;;;5000887;28;20037;-81
2021/10/28 05:19:23;;;;;;;4.03;1.90;;;15.20;78.50;;;;;;4990631;28;20539;-82
2021/10/28 05:21:49;;;;;;;3.80;2.55;;;15.20;78.60;;;;;;4994023;28;20106;-80
2021/10/28 05:24:15;;;;;;;4.30;1.77;;;15.10;78.50;;;;;;5003545;28;20125;-80
2021/10/28 05:26:41;;;;;;;3.47;1.83;;;15.10;78.50;;;;;;5004912;28;20100;-80
2021/10/28 05:29:07;;;;;;;4.85;2.50;;;15.10;78.60;;;;;;5004053;28;20553;-75
2021/10/28 05:31:34;;;;;;;4.35;2.05;;;15.10;78.70;;;;;;4994587;28;20034;-77
2021/10/28 05:34:00;;;;;;;3.00;1.70;;;15.10;78.70;;;;;;4988389;28;20026;-82
2021/10/28 05:36:26;;;;;;;4.28;2.10;;;15.10;78.80;;;;;;5007126;28;20038;-81
2021/10/28 05:38:53;;;;;;;3.70;2.15;;;15.10;78.80;;;;;;4996501;28;20956;-79
2021/10/28 05:41:19;;;;;;;4.40;2.13;;;15.10;78.90;;;;;;4984645;28;20080;-82
2021/10/28 05:43:45;;;;;;;3.63;1.65;;;15.10;78.90;;;;;;4997423;28;20026;-80
2021/10/28 05:46:11;;;;;;;5.03;1.85;;;15.10;79.00;;;;;;4981544;28;20098;-79
2021/10/28 05:48:37;;;;;;;4.22;2.15;;;15.10;79.10;;;;;;4992780;28;20042;-84
2021/10/28 05:51:04;;;;;;;3.78;1.80;;;15.10;79.10;;;;;;5001376;28;20096;-78
2021/10/28 05:53:31;;;;;;;6.20;2.72;;;15.10;79.20;;;;;;4998634;28;20057;-80
2021/10/28 05:55:56;;;;;;;5.22;2.10;;;15.10;79.20;;;;;;4998516;28;20026;-79
2021/10/28 05:58:23;;;;;;;10.32;3.13;;;15.10;79.30;;;;;;4989106;28;20092;-80
2021/10/28 06:00:49;;;;;;;8.68;2.17;;;15.10;79.40;;;;;;4989152;28;20057;-77
2021/10/28 06:03:15;;;;;;;4.22;1.90;;;15.10;79.40;;;;;;4995078;28;20085;-79
2021/10/28 06:05:41;;;;;;;6.70;2.80;;;15.10;79.40;;;;;;5008484;28;20046;-78
2021/10/28 06:08:07;;;;;;;10.60;4.13;;;15.10;79.60;;;;;;5007403;28;20096;-76
2021/10/28 06:10:33;;;;;;;6.45;3.72;;;15.20;80.40;;;;;;4998354;28;20026;-78
2021/10/28 06:13:01;;;;;;;7.88;3.90;;;15.20;81.00;;;;;;5007121;28;20053;-77
2021/10/28 06:15:29;;;;;;;8.07;3.65;;;15.30;81.60;;;;;;5022735;28;20045;-78
2021/10/28 06:17:58;;;;;;;7.28;3.60;;;15.30;81.90;;;;;;4989532;28;20155;-76
2021/10/28 06:20:24;;;;;;;9.18;3.45;;;15.40;82.40;;;;;;4987293;28;20125;-78
2021/10/28 06:22:51;;;;;;;8.68;2.95;;;15.40;82.50;;;;;;4991202;28;20038;-77
2021/10/28 06:25:19;;;;;;;5.60;3.00;;;15.40;82.60;;;;;;5022679;28;20030;-78
2021/10/28 06:27:45;;;;;;;7.82;3.58;;;15.50;82.90;;;;;;5004941;28;20465;-78
2021/10/28 06:30:12;;;;;;;8.68;3.53;;;15.50;82.90;;;;;;4987940;28;20537;-80
2021/10/28 06:32:49;;;;;;;6.97;2.92;;;15.50;82.90;;;;;;4989168;28;20218;-78
2021/10/28 06:35:15;;;;;;;3.33;2.60;;;15.50;82.90;;;;;;5008515;28;20153;-76
2021/10/28 06:37:46;;;;;;;4.63;2.60;;;15.50;82.80;;;;;;5008471;28;20065;-77
2021/10/28 06:40:14;;;;;;;6.68;2.53;;;15.50;82.90;;;;;;4981600;28;20030;-82
2021/10/28 06:42:41;;;;;;;4.38;2.45;;;15.50;82.80;;;;;;4987876;28;20034;-78
2021/10/28 06:45:07;;;;;;;6.32;2.63;;;15.50;82.80;;;;;;5005220;28;20061;-79
2021/10/28 06:47:33;;;;;;;6.50;2.50;;;15.50;82.70;;;;;;4991138;28;20034;-78
2021/10/28 06:50:05;;;;;;;5.90;3.20;;;15.50;82.70;;;;;;4987626;28;20065;-79
2021/10/28 06:52:48;;;;;;;4.95;2.70;;;15.50;82.70;;;;;;4970022;28;20034;-79
2021/10/28 06:55:27;;;;;;;6.78;2.83;;;15.50;82.60;;;;;;4965934;28;20057;-78
2021/10/28 07:03:05;;;;;;;3.13;2.33;;;15.50;82.40;;;;;;5005123;28;20065;-77
2021/10/28 07:05:31;;;;;;;7.03;2.95;;;15.60;82.50;;;;;;5004342;28;20379;-78
2021/10/28 07:07:57;;;;;;;4.75;2.35;;;15.50;82.20;;;;;;5004293;28;20048;-78
2021/10/28 07:10:24;;;;;;;4.95;2.80;;;15.60;82.40;;;;;;5004809;28;20029;-79
2021/10/28 07:12:55;;;;;;;6.47;3.00;;;15.50;82.10;;;;;;5005932;28;20124;-78
2021/10/28 07:15:31;;;;;;;4.00;2.20;;;15.50;82.10;;;;;;5006722;28;20076;-79
2021/10/28 07:28:22;;;;;;;4.68;2.60;;;15.50;81.80;;;;;;4972922;28;20635;-81
2021/10/28 08:30:25;;;;;;;3.83;2.22;;;16.00;81.30;;;;;;4985441;28;20192;-80
2021/10/28 08:32:53;;;;;;;6.37;2.40;;;16.00;81.20;;;;;;4988667;28;20041;-81
2021/10/28 08:35:19;;;;;;;6.88;2.70;;;16.00;81.10;;;;;;5007030;28;20291;-80
2021/10/28 08:37:54;;;;;;;5.82;3.05;;;16.10;81.20;;;;;;5007659;28;20160;-82
2021/10/28 08:40:21;;;;;;;4.53;2.45;;;16.10;81.20;;;;;;5010776;28;20355;-78
2021/10/28 08:42:47;;;;;;;4.63;2.95;;;16.20;81.20;;;;;;5007976;28;20030;-77
2021/10/28 08:45:16;;;;;;;5.70;2.90;;;16.20;81.20;;;;;;5010443;28;20414;-78
2021/10/28 08:47:57;;;;;;;5.57;3.00;;;16.20;81.40;;;;;;4992692;28;20026;-77
2021/10/28 08:50:30;;;;;;;10.15;2.85;;;16.30;81.70;;;;;;4990348;28;20041;-77
2021/10/28 08:53:16;;;;;;;6.50;2.45;;;16.30;81.60;;;;;;4991111;28;20026;-76
2021/10/28 08:55:55;;;;;;;6.38;2.78;;;16.40;81.60;;;;;;5009468;28;20034;-77
2021/10/28 09:23:59;;;;;;;5.95;2.20;;;17.20;80.50;;;;;;4990450;28;20112;-76
2021/10/28 09:32:24;;;;;;;8.48;3.55;;;17.30;79.80;;;;;;4989836;28;20022;-76
2021/10/28 09:46:46;;;;;;;6.57;3.67;;;17.70;79.00;;;;;;5002570;28;20079;-77
2021/10/28 09:52:28;;;;;;;9.20;3.05;;;17.80;78.70;;;;;;5009623;28;20030;-77
2021/10/28 09:55:04;;;;;;;8.15;2.05;;;17.90;78.50;;;;;;5008734;28;20766;-77
2021/10/28 09:58:13;;;;;;;9.25;3.10;;;18.00;78.40;;;;;;5008367;28;20056;-78
2021/10/28 10:00:32;;;;;;;4.82;2.78;;;18.10;78.20;;;;;;5005378;28;20041;-77
2021/10/28 10:03:07;;;;;;;5.82;2.05;;;18.20;78.20;;;;;;5008612;28;20037;-77
2021/10/28 10:05:33;;;;;;;4.65;2.38;;;18.30;78.00;;;;;;5007760;28;20038;-77
2021/10/28 10:08:00;;;;;;;4.47;2.13;;;18.20;77.50;;;;;;5008790;28;20230;-77
2021/10/28 10:10:29;;;;;;;9.18;2.95;;;18.30;78.00;;;;;;5024071;28;20045;-77
2021/10/28 10:12:56;;;;;;;6.60;2.40;;;18.30;77.30;;;;;;5007689;28;20655;-78
2021/10/28 10:15:22;;;;;;;5.63;2.80;;;18.30;77.10;;;;;;5008812;28;20064;-77
2021/10/28 10:17:54;;;;;;;7.07;1.98;;;18.30;76.90;;;;;;4992606;28;20045;-77
2021/10/28 10:20:29;;;;;;;5.53;2.42;;;18.40;76.90;;;;;;4988594;28;20123;-75
2021/10/28 10:23:21;;;;;;;5.68;2.75;;;18.40;76.80;;;;;;4990254;28;20508;-75
2021/10/28 11:24:23;;;;;;;6.20;2.60;;;19.20;75.80;;;;;;4992609;28;20030;-81
2021/10/28 12:56:41;;;;;;;4.50;2.05;;;21.10;73.70;;;;;;5006768;28;20095;-77
2021/10/28 13:28:03;;;;;;;2.80;1.30;;;21.00;73.70;;;;;;5003698;28;20591;-77
2021/10/28 13:49:14;;;;;;;4.13;1.77;;;20.70;73.30;;;;;;5001997;28;20129;-77
2021/10/28 15:29:21;;;;;;;6.20;2.28;;;19.50;73.10;;;;;;4988047;28;20061;-82
2021/10/28 15:34:48;;;;;;;8.48;2.50;;;19.40;73.40;;;;;;5002950;28;20034;-82
2021/10/28 15:51:49;;;;;;;5.55;2.70;;;19.20;74.20;;;;;;4990542;28;20058;-78
2021/10/28 16:23:52;;;;;;;7.63;3.97;;;18.90;75.50;;;;;;5008449;28;20144;-81
2021/10/28 16:26:33;;;;;;;5.22;2.60;;;18.90;75.70;;;;;;4992305;28;20238;-80
2021/10/28 16:29:12;;;;;;;6.50;3.72;;;18.90;75.90;;;;;;4996988;28;20042;-80
2021/10/28 16:31:45;;;;;;;5.00;2.60;;;18.80;75.80;;;;;;4980286;28;20081;-85
2021/10/28 16:34:12;;;;;;;5.75;2.53;;;18.80;75.90;;;;;;4994337;28;20184;-86
2021/10/28 16:36:38;;;;;;;5.50;2.78;;;18.80;76.00;;;;;;4988056;28;20030;-81
2021/10/28 16:39:09;;;;;;;3.08;2.55;;;18.70;75.80;;;;;;4985756;28;20045;-83
2021/10/28 16:41:36;;;;;;;6.40;3.40;;;18.70;75.90;;;;;;4987459;28;20493;-81
2021/10/28 16:44:04;;;;;;;5.57;3.58;;;18.60;76.30;;;;;;4993151;28;20095;-83
2021/10/28 16:46:30;;;;;;;8.52;2.90;;;18.60;75.90;;;;;;4996481;28;20052;-83
2021/10/28 16:48:56;;;;;;;4.07;2.55;;;18.50;75.80;;;;;;4998422;28;20045;-84
2021/10/28 16:51:23;;;;;;;5.95;3.28;;;18.40;75.80;;;;;;5003988;28;20496;-80
2021/10/28 16:53:49;;;;;;;6.95;5.90;;;18.40;75.90;;;;;;4997135;28;20498;-85
2021/10/28 16:56:15;;;;;;;8.02;6.82;;;18.30;75.90;;;;;;5010014;28;20040;-80
2021/10/28 16:58:42;;;;;;;7.88;5.40;;;18.20;75.90;;;;;;4998972;28;20030;-79
2021/10/28 17:01:09;;;;;;;16.83;15.13;;;18.20;76.00;;;;;;4996240;28;20050;-79
2021/10/28 17:03:36;;;;;;;13.15;11.95;;;18.10;76.00;;;;;;4999662;28;20273;-79
2021/10/28 17:06:02;;;;;;;11.68;10.68;;;18.10;76.30;;;;;;5003995;28;20030;-80
2021/10/28 17:08:29;;;;;;;11.10;10.07;;;18.10;77.10;;;;;;5011461;28;20069;-80
2021/10/28 17:10:56;;;;;;;10.85;9.52;;;18.00;76.50;;;;;;4990079;28;20352;-79
2021/10/28 17:13:23;;;;;;;10.65;8.93;;;18.00;76.90;;;;;;4985417;28;20038;-78
2021/10/28 17:15:50;;;;;;;9.30;8.40;;;17.90;76.90;;;;;;4998008;28;20030;-78
2021/10/28 17:18:16;;;;;;;9.95;7.47;;;17.90;77.00;;;;;;5005084;28;20038;-80
2021/10/28 17:20:42;;;;;;;9.88;7.75;;;17.90;77.10;;;;;;5010877;28;20119;-78
2021/10/28 17:23:14;;;;;;;7.97;7.00;;;17.80;77.20;;;;;;4999810;28;20030;-80
2021/10/28 17:25:56;;;;;;;8.73;6.97;;;17.80;77.30;;;;;;4996376;28;20042;-79
2021/10/28 17:28:35;;;;;;;8.40;6.93;;;17.70;77.30;;;;;;5009332;28;20034;-80
2021/10/28 17:31:08;;;;;;;8.55;6.60;;;17.80;77.50;;;;;;4994455;28;20049;-79
2021/10/28 17:33:38;;;;;;;7.40;5.85;;;17.70;77.50;;;;;;4974453;28;20037;-79
2021/10/28 17:36:07;;;;;;;8.43;6.03;;;17.60;77.40;;;;;;4977920;28;20049;-79
2021/10/28 17:38:36;;;;;;;11.48;5.38;;;17.60;77.50;;;;;;4996263;28;20096;-79
2021/10/28 17:41:06;;;;;;;7.25;5.32;;;17.60;77.50;;;;;;4996050;28;20069;-80
2021/10/28 17:43:43;;;;;;;4.90;4.47;;;17.60;77.60;;;;;;5013793;28;20033;-80
2021/10/28 17:46:13;;;;;;;9.30;5.35;;;17.50;77.50;;;;;;5009194;28;20038;-78
2021/10/28 17:48:51;;;;;;;7.40;4.82;;;17.50;77.60;;;;;;4991360;28;20130;-80
2021/10/28 17:51:21;;;;;;;8.85;5.63;;;17.40;77.60;;;;;;4990388;28;20049;-79
2021/10/28 17:53:47;;;;;;;7.07;4.32;;;17.40;77.60;;;;;;5002160;28;20048;-83
2021/10/28 17:56:21;;;;;;;7.68;5.20;;;17.40;77.70;;;;;;5018088;28;20053;-79
2021/10/28 17:58:50;;;;;;;5.90;4.35;;;17.30;77.60;;;;;;5011391;28;20042;-85
2021/10/28 18:01:26;;;;;;;6.43;4.80;;;17.30;77.70;;;;;;4977543;28;20081;-83
2021/10/28 18:03:59;;;;;;;6.35;4.13;;;17.30;77.80;;;;;;4993412;28;20066;-83
2021/10/28 18:06:25;;;;;;;5.72;4.38;;;17.20;77.70;;;;;;4993788;28;20546;-86
2021/10/28 18:08:51;;;;;;;7.88;5.40;;;17.20;77.80;;;;;;5011043;28;20564;-80
2021/10/28 18:11:17;;;;;;;7.28;4.55;;;17.20;77.90;;;;;;4994966;28;20395;-80
2021/10/28 18:13:43;;;;;;;7.82;4.78;;;17.20;78.10;;;;;;4994070;28;20028;-80
2021/10/28 18:16:09;;;;;;;6.07;5.15;;;17.10;78.20;;;;;;4997785;28;20038;-79
2021/10/28 18:18:39;;;;;;;7.35;4.57;;;17.10;78.70;;;;;;5000613;28;20030;-80
2021/10/28 18:21:05;;;;;;;7.40;4.32;;;17.10;79.20;;;;;;5015730;28;20436;-79
2021/10/28 18:23:33;;;;;;;7.85;4.85;;;17.20;79.80;;;;;;5015808;28;20033;-78
2021/10/28 18:25:59;;;;;;;9.65;4.18;;;17.20;80.00;;;;;;5014560;28;20042;-78
2021/10/28 18:28:27;;;;;;;11.85;4.57;;;17.20;80.10;;;;;;5009068;28;20122;-78
2021/10/28 18:30:53;;;;;;;9.95;3.90;;;17.20;80.20;;;;;;4999471;28;20046;-78
2021/10/28 18:33:19;;;;;;;7.97;4.85;;;17.20;80.40;;;;;;5014042;28;20061;-80
2021/10/28 18:35:52;;;;;;;7.50;4.32;;;17.10;80.40;;;;;;4991554;28;20054;-78
2021/10/28 18:38:21;;;;;;;8.68;4.68;;;17.10;81.00;;;;;;4991791;28;20121;-77
2021/10/28 18:40:47;;;;;;;11.68;5.50;;;17.10;80.50;;;;;;4993713;28;20158;-79
2021/10/28 18:43:16;;;;;;;12.75;6.57;;;17.10;80.90;;;;;;5009285;28;20030;-80
2021/10/28 18:45:43;;;;;;;13.73;6.85;;;17.10;81.70;;;;;;4993722;28;20034;-79
2021/10/28 18:48:10;;;;;;;13.60;6.45;;;17.20;82.50;;;;;;4998093;28;20030;-79
2021/10/28 18:50:37;;;;;;;10.25;5.63;;;17.20;83.00;;;;;;4995575;28;20038;-79
2021/10/28 18:53:03;;;;;;;11.50;6.63;;;17.20;83.60;;;;;;4989248;28;20047;-79
2021/10/28 18:55:29;;;;;;;12.50;5.93;;;17.30;84.20;;;;;;4990906;28;20493;-80
2021/10/28 18:57:56;;;;;;;8.93;5.80;;;17.30;84.50;;;;;;4996617;28;20049;-78
2021/10/28 19:00:22;;;;;;;16.05;6.53;;;17.30;84.80;;;;;;4998133;28;20126;-79
2021/10/28 19:02:48;;;;;;;11.95;5.13;;;17.40;85.30;;;;;;4988065;28;20437;-79
2021/10/28 19:05:14;;;;;;;10.02;5.28;;;17.40;85.50;;;;;;4987795;28;20030;-78
2021/10/28 19:07:40;;;;;;;10.15;5.70;;;17.50;85.80;;;;;;4986731;28;20037;-78
2021/10/28 19:10:07;;;;;;;7.22;4.55;;;17.40;85.80;;;;;;4986225;28;20034;-79
2021/10/28 19:12:34;;;;;;;6.65;4.68;;;17.40;85.90;;;;;;4987680;28;20038;-79
2021/10/28 19:15:00;;;;;;;9.60;5.32;;;17.50;86.10;;;;;;4988364;28;20034;-79
2021/10/28 19:17:26;;;;;;;9.45;5.63;;;17.50;86.20;;;;;;4986717;28;20617;-79
2021/10/28 19:19:52;;;;;;;8.43;5.35;;;17.50;86.30;;;;;;4986379;28;20069;-79
2021/10/28 19:22:18;;;;;;;8.43;4.65;;;17.50;86.30;;;;;;4987737;28;20125;-80
2021/10/28 19:24:45;;;;;;;10.25;5.28;;;17.50;86.40;;;;;;4987701;28;20062;-79
2021/10/28 19:27:11;;;;;;;7.82;5.03;;;17.60;86.60;;;;;;4987500;28;20046;-79
2021/10/28 19:29:44;;;;;;;8.05;5.07;;;17.60;86.60;;;;;;5002044;28;20022;-77
2021/10/28 19:32:22;;;;;;;7.70;4.13;;;17.60;86.50;;;;;;4993891;28;20026;-76
2021/10/28 19:34:48;;;;;;;6.07;4.15;;;17.60;86.40;;;;;;4996086;28;20030;-78
2021/10/28 19:37:23;;;;;;;6.35;3.85;;;17.60;86.30;;;;;;5005870;28;20052;-76
2021/10/28 19:47:46;;;;;;;6.35;3.75;;;17.60;86.10;;;;;;4987433;28;20110;-80
2021/10/28 19:50:13;;;;;;;7.40;4.25;;;17.60;86.00;;;;;;4965816;28;20054;-79
2021/10/28 19:52:41;;;;;;;7.85;3.67;;;17.60;85.80;;;;;;4980389;28;20474;-80
2021/10/28 19:55:08;;;;;;;10.50;3.33;;;17.60;85.70;;;;;;4972681;28;20517;-79
2021/10/28 19:57:41;;;;;;;6.43;2.78;;;17.60;85.50;;;;;;4985955;28;20281;-79
2021/10/28 20:21:33;;;;;;;5.18;2.30;;;17.50;84.00;;;;;;4991803;28;20034;-79
2021/10/28 20:24:00;;;;;;;4.00;2.17;;;17.50;83.90;;;;;;5005018;28;20036;-76
2021/10/28 20:26:27;;;;;;;4.22;2.67;;;17.50;83.80;;;;;;4998645;28;20565;-75
2021/10/28 20:28:54;;;;;;;3.35;2.50;;;17.40;83.60;;;;;;4991945;28;20061;-75
2021/10/28 20:31:21;;;;;;;4.13;2.83;;;17.40;83.60;;;;;;4985768;28;20030;-76
2021/10/28 20:34:03;;;;;;;3.50;2.30;;;17.40;83.50;;;;;;4992910;28;20033;-75
2021/10/28 20:39:01;;;;;;;4.63;2.25;;;17.40;83.60;;;;;;4998049;28;20014;-77
2021/10/28 20:41:28;;;;;;;3.65;2.30;;;17.30;83.40;;;;;;4989999;28;20031;-79
2021/10/28 20:43:58;;;;;;;4.03;2.17;;;17.30;83.40;;;;;;4994893;28;20032;-75
2021/10/28 20:46:26;;;;;;;5.63;2.90;;;17.20;83.20;;;;;;5009730;28;20042;-76
2021/10/28 20:48:53;;;;;;;3.58;2.10;;;17.20;83.20;;;;;;5000063;28;20050;-75
2021/10/28 20:51:22;;;;;;;4.32;2.28;;;17.20;83.30;;;;;;4990021;28;20031;-75
2021/10/28 20:53:49;;;;;;;4.43;2.10;;;17.20;83.30;;;;;;5009728;28;20058;-76
2021/10/28 20:56:15;;;;;;;4.15;2.33;;;17.20;83.30;;;;;;5008244;28;20045;-79
2021/10/28 20:58:41;;;;;;;3.22;2.13;;;17.10;83.20;;;;;;5000941;28;20034;-76
2021/10/28 21:01:07;;;;;;;4.47;2.10;;;17.10;83.20;;;;;;4971953;28;20364;-77
2021/10/28 21:03:33;;;;;;;4.18;2.30;;;17.10;83.20;;;;;;4991338;28;20029;-76
2021/10/28 21:06:01;;;;;;;3.97;2.95;;;17.00;83.00;;;;;;5010191;28;20048;-78
2021/10/28 21:08:28;;;;;;;3.90;2.25;;;17.00;83.00;;;;;;5003843;28;20177;-79
2021/10/28 21:10:55;;;;;;;2.85;1.95;;;17.10;83.20;;;;;;4990539;28;20097;-77
2021/10/28 21:13:22;;;;;;;3.13;2.17;;;17.00;83.00;;;;;;5005486;28;20028;-78
2021/10/28 21:15:48;;;;;;;3.00;2.00;;;17.00;83.10;;;;;;4989849;28;20060;-76
2021/10/28 21:18:15;;;;;;;3.50;2.20;;;17.00;83.10;;;;;;4988696;28;20073;-76
2021/10/28 21:20:41;;;;;;;2.72;2.13;;;16.90;82.90;;;;;;4989558;28;20045;-78
2021/10/28 21:23:07;;;;;;;3.70;2.08;;;17.00;83.10;;;;;;4988654;28;20035;-81
2021/10/28 21:25:33;;;;;;;2.58;1.55;;;16.90;82.90;;;;;;4989663;28;20037;-79
2021/10/28 21:27:59;;;;;;;3.85;1.95;;;16.90;83.00;;;;;;4993489;28;20489;-79
2021/10/28 21:30:26;;;;;;;3.50;1.98;;;16.90;83.00;;;;;;4988517;28;20034;-79
2021/10/28 21:32:52;;;;;;;3.38;1.80;;;16.90;83.30;;;;;;4988485;28;20276;-75
2021/10/28 21:35:18;;;;;;;3.15;1.88;;;16.90;83.00;;;;;;4989112;28;20129;-75
2021/10/28 21:37:45;;;;;;;4.40;2.35;;;16.90;83.00;;;;;;4989348;28;20066;-74
2021/10/28 21:40:13;;;;;;;5.90;2.30;;;16.80;82.80;;;;;;4969228;28;20030;-76
2021/10/28 21:42:39;;;;;;;4.63;2.00;;;16.80;82.80;;;;;;4970449;28;20092;-76
2021/10/28 21:45:10;;;;;;;3.28;2.22;;;16.80;82.90;;;;;;4984650;28;20596;-76
2021/10/28 21:47:36;;;;;;;3.08;1.83;;;16.80;82.80;;;;;;4990250;28;20038;-77
2021/10/28 21:50:08;;;;;;;4.10;1.95;;;16.80;82.80;;;;;;4988940;28;20057;-76
2021/10/28 21:52:42;;;;;;;3.35;2.28;;;16.80;82.90;;;;;;5004365;28;20092;-76
2021/10/28 21:55:24;;;;;;;2.13;1.63;;;16.70;82.70;;;;;;5004800;28;20049;-76
2021/10/28 21:58:07;;;;;;;4.32;2.05;;;16.80;82.90;;;;;;5007382;28;20404;-76
2021/10/28 22:25:20;;;;;;;3.05;2.38;;;16.60;82.70;;;;;;4987661;28;20073;-81
2021/10/28 22:27:46;;;;;;;4.18;2.17;;;16.60;82.70;;;;;;4988208;28;20084;-79
2021/10/28 22:30:13;;;;;;;3.42;1.83;;;16.60;82.70;;;;;;4988967;28;20034;-81
2021/10/28 22:32:40;;;;;;;4.38;2.00;;;16.60;82.80;;;;;;4988138;28;20033;-78